Time;durP1;ratioP1;P1;durP2;ratioP2;P2;SDS_P1;SDS_P2;PMS_P1;PMS_P2;Temp;Humidity;BMP_temperature;BMP_pressure;BME280_temperature;BME280_humidity;BME280_pressure;Samples;Min_cycle;Max_cycle;Signal;HPM_P1;HPM_P2
2022/10/22 00:01:27;;;;;;;2.58;2.45;;;;;;;;;;5073960;28;20044;-84
2022/10/22 00:03:53;;;;;;;4.40;3.10;;;;;;;;;;5073966;28;20052;-83
2022/10/22 00:06:20;;;;;;;1.85;1.75;;;;;;;;;;5073903;28;20094;-85
2022/10/22 00:08:47;;;;;;;1.77;1.23;;;;;;;;;;5073858;28;20102;-85
2022/10/22 00:11:15;;;;;;;3.30;1.75;;;;;;;;;;5057081;28;20497;-84
2022/10/22 00:13:42;;;;;;;4.32;3.38;;;;;;;;;;5053817;28;20049;-85
2022/10/22 00:16:08;;;;;;;3.33;2.17;;;;;;;;;;5053085;28;20045;-85
2022/10/22 00:18:35;;;;;;;4.45;2.63;;;;;;;;;;5053904;28;20060;-84
2022/10/22 00:21:02;;;;;;;3.38;3.17;;;;;;;;;;5053852;28;20094;-84
2022/10/22 00:23:28;;;;;;;3.60;2.85;;;;;;;;;;5053772;28;20059;-84
2022/10/22 00:25:56;;;;;;;2.30;2.08;;;;;;;;;;5053635;28;20103;-84
2022/10/22 00:28:23;;;;;;;2.65;2.45;;;;;;;;;;5069113;28;20049;-85
2022/10/22 00:30:55;;;;;;;3.55;1.30;;;;;;;;;;5073240;28;20044;-85
2022/10/22 00:33:21;;;;;;;1.70;1.60;;;;;;;;;;5073562;28;20123;-85
2022/10/22 00:35:47;;;;;;;3.53;3.22;;;;;;;;;;5073606;28;20098;-84
2022/10/22 00:38:15;;;;;;;0.95;0.95;;;;;;;;;;5053394;28;20107;-84
2022/10/22 00:40:41;;;;;;;3.72;3.00;;;;;;;;;;5053409;28;20040;-85
2022/10/22 00:43:11;;;;;;;2.08;1.88;;;;;;;;;;5053174;28;20057;-84
2022/10/22 00:45:38;;;;;;;2.90;2.50;;;;;;;;;;5053017;28;20083;-84
2022/10/22 00:48:07;;;;;;;2.60;2.40;;;;;;;;;;5053305;28;20061;-84
2022/10/22 00:50:35;;;;;;;2.00;1.55;;;;;;;;;;5053032;28;20044;-85
2022/10/22 00:53:02;;;;;;;1.92;1.83;;;;;;;;;;5052953;28;20053;-85
2022/10/22 00:55:29;;;;;;;2.65;2.10;;;;;;;;;;5053063;28;20056;-85
2022/10/22 00:57:57;;;;;;;6.57;3.50;;;;;;;;;;5053120;28;20106;-85
2022/10/22 01:00:25;;;;;;;2.90;2.70;;;;;;;;;;5052701;28;20458;-85
2022/10/22 01:02:52;;;;;;;1.92;1.83;;;;;;;;;;5052869;28;20045;-85
2022/10/22 01:05:19;;;;;;;2.67;2.47;;;;;;;;;;5052975;28;20390;-85
2022/10/22 01:07:47;;;;;;;4.22;3.50;;;;;;;;;;5052877;28;20095;-86
2022/10/22 01:10:18;;;;;;;3.25;3.03;;;;;;;;;;5052652;28;20049;-86
2022/10/22 01:12:48;;;;;;;2.17;1.83;;;;;;;;;;5052507;28;20053;-85
2022/10/22 01:15:21;;;;;;;3.30;3.10;;;;;;;;;;5052296;28;20057;-85
2022/10/22 01:17:54;;;;;;;2.95;2.75;;;;;;;;;;5052433;28;20122;-85
2022/10/22 01:20:31;;;;;;;3.38;2.95;;;;;;;;;;5052646;28;20115;-84
2022/10/22 01:23:02;;;;;;;1.98;1.88;;;;;;;;;;5052510;28;20049;-84
2022/10/22 01:25:31;;;;;;;3.15;2.95;;;;;;;;;;5052383;28;20068;-84
2022/10/22 01:28:02;;;;;;;3.22;2.45;;;;;;;;;;5052119;28;20049;-85
2022/10/22 01:30:30;;;;;;;2.97;2.40;;;;;;;;;;5052387;28;20045;-85
2022/10/22 01:32:58;;;;;;;2.38;2.20;;;;;;;;;;5051857;28;20045;-85
2022/10/22 01:35:26;;;;;;;2.13;2.03;;;;;;;;;;5052096;28;20518;-85
2022/10/22 01:37:55;;;;;;;3.83;2.83;;;;;;;;;;5057040;28;20504;-85
2022/10/22 01:40:23;;;;;;;2.95;2.75;;;;;;;;;;5072209;28;20049;-85
2022/10/22 01:42:57;;;;;;;0.73;0.73;;;;;;;;;;5072070;28;20084;-85
2022/10/22 01:45:23;;;;;;;1.77;1.42;;;;;;;;;;5072013;28;20489;-85
2022/10/22 01:47:55;;;;;;;3.08;1.90;;;;;;;;;;5070912;28;20102;-85
2022/10/22 01:50:30;;;;;;;2.97;2.63;;;;;;;;;;5071905;28;20048;-85
2022/10/22 01:53:11;;;;;;;2.47;2.08;;;;;;;;;;5072005;28;20052;-85
2022/10/22 01:55:42;;;;;;;4.80;3.28;;;;;;;;;;5069350;28;20110;-85
2022/10/22 01:58:13;;;;;;;4.93;3.55;;;;;;;;;;5071665;28;20048;-85
2022/10/22 02:00:43;;;;;;;2.72;2.53;;;;;;;;;;5071752;28;20608;-85
2022/10/22 02:03:13;;;;;;;2.20;2.00;;;;;;;;;;5071362;28;20109;-84
2022/10/22 02:05:43;;;;;;;2.55;1.95;;;;;;;;;;5070929;28;20528;-85
2022/10/22 02:08:11;;;;;;;3.58;2.05;;;;;;;;;;5071658;28;20062;-85
2022/10/22 02:10:39;;;;;;;2.15;2.05;;;;;;;;;;5071819;28;20113;-85
2022/10/22 02:13:08;;;;;;;2.85;2.65;;;;;;;;;;5071258;28;20562;-85
2022/10/22 02:15:35;;;;;;;3.90;2.53;;;;;;;;;;5071720;28;20056;-85
2022/10/22 02:18:02;;;;;;;1.85;1.67;;;;;;;;;;5071571;28;20098;-85
2022/10/22 02:20:33;;;;;;;1.92;1.80;;;;;;;;;;5070991;28;20049;-84
2022/10/22 02:23:00;;;;;;;1.20;1.15;;;;;;;;;;5071490;28;20063;-84
2022/10/22 02:25:28;;;;;;;1.20;1.10;;;;;;;;;;5071640;28;20098;-85
2022/10/22 02:27:59;;;;;;;2.38;2.15;;;;;;;;;;5071151;28;20053;-86
2022/10/22 02:30:26;;;;;;;2.10;1.95;;;;;;;;;;5071888;28;20044;-85
2022/10/22 02:32:56;;;;;;;1.92;1.83;;;;;;;;;;5071459;28;20049;-85
2022/10/22 02:35:24;;;;;;;2.55;2.38;;;;;;;;;;5071625;28;20045;-85
2022/10/22 02:37:53;;;;;;;4.03;2.78;;;;;;;;;;5070607;28;20060;-84
2022/10/22 02:40:20;;;;;;;2.95;2.75;;;;;;;;;;5071613;28;20056;-84
2022/10/22 02:42:47;;;;;;;3.47;2.58;;;;;;;;;;5071150;28;20040;-85
2022/10/22 02:45:14;;;;;;;1.38;1.00;;;;;;;;;;5071749;28;20496;-85
2022/10/22 02:47:40;;;;;;;2.35;2.25;;;;;;;;;;5071254;28;20106;-84
2022/10/22 02:50:07;;;;;;;3.35;3.05;;;;;;;;;;5071263;28;20435;-84
2022/10/22 02:52:33;;;;;;;3.35;3.15;;;;;;;;;;5071300;28;20053;-84
2022/10/22 02:55:01;;;;;;;3.60;3.20;;;;;;;;;;5070389;28;20466;-84
2022/10/22 02:57:28;;;;;;;2.17;2.08;;;;;;;;;;5070871;28;20535;-85
2022/10/22 02:59:54;;;;;;;3.13;2.35;;;;;;;;;;5071461;28;20056;-83
2022/10/22 03:02:21;;;;;;;1.90;1.77;;;;;;;;;;5070996;28;20102;-84
2022/10/22 03:04:47;;;;;;;2.47;2.35;;;;;;;;;;5071322;28;20045;-84
2022/10/22 03:07:14;;;;;;;2.40;2.30;;;;;;;;;;5071043;28;20484;-84
2022/10/22 03:09:40;;;;;;;3.40;2.72;;;;;;;;;;5070932;28;20103;-84
2022/10/22 03:12:08;;;;;;;3.03;2.83;;;;;;;;;;5069983;28;20095;-84
2022/10/22 03:14:35;;;;;;;2.78;2.58;;;;;;;;;;5073251;28;20558;-84
2022/10/22 03:17:01;;;;;;;2.70;2.53;;;;;;;;;;5074448;28;20122;-84
2022/10/22 03:19:28;;;;;;;3.15;2.92;;;;;;;;;;5074840;28;20474;-84
2022/10/22 03:21:57;;;;;;;1.75;1.65;;;;;;;;;;5074765;28;20098;-84
2022/10/22 03:24:25;;;;;;;2.78;1.92;;;;;;;;;;5054667;28;20048;-85
2022/10/22 03:26:52;;;;;;;2.20;2.03;;;;;;;;;;5054808;28;20114;-85
2022/10/22 03:29:21;;;;;;;3.85;3.55;;;;;;;;;;5054497;28;20677;-85
2022/10/22 03:31:47;;;;;;;2.85;2.33;;;;;;;;;;5054654;28;20049;-85
2022/10/22 03:34:14;;;;;;;2.08;1.98;;;;;;;;;;5054479;28;20053;-85
2022/10/22 03:36:41;;;;;;;2.17;2.05;;;;;;;;;;5054611;28;20114;-85
2022/10/22 03:39:07;;;;;;;2.05;1.90;;;;;;;;;;5054347;28;20044;-85
2022/10/22 03:41:34;;;;;;;1.83;1.73;;;;;;;;;;5054529;28;20135;-85
2022/10/22 03:44:01;;;;;;;17.33;3.63;;;;;;;;;;5054440;28;20056;-85
2022/10/22 03:46:29;;;;;;;4.20;3.17;;;;;;;;;;5054347;28;20115;-85
2022/10/22 03:48:55;;;;;;;2.03;1.93;;;;;;;;;;5054021;28;20492;-85
2022/10/22 03:51:22;;;;;;;3.60;3.40;;;;;;;;;;5054278;28;20178;-85
2022/10/22 03:53:48;;;;;;;1.63;1.42;;;;;;;;;;5053956;28;20048;-85
2022/10/22 03:56:15;;;;;;;2.88;1.85;;;;;;;;;;5054067;28;20065;-84
2022/10/22 03:58:41;;;;;;;2.13;2.03;;;;;;;;;;5054005;28;20453;-85
2022/10/22 04:01:08;;;;;;;4.10;3.75;;;;;;;;;;5053641;28;20072;-85
2022/10/22 04:03:36;;;;;;;1.77;1.67;;;;;;;;;;5053698;28;20049;-84
2022/10/22 04:06:03;;;;;;;3.03;2.67;;;;;;;;;;5053944;28;20459;-84
2022/10/22 04:08:30;;;;;;;2.42;2.33;;;;;;;;;;5054130;28;20103;-85
2022/10/22 04:10:56;;;;;;;2.65;2.38;;;;;;;;;;5053228;28;20037;-85
2022/10/22 04:13:23;;;;;;;4.45;3.70;;;;;;;;;;5053899;28;20095;-85
2022/10/22 04:15:50;;;;;;;6.53;6.13;;;;;;;;;;5053836;28;20049;-85
2022/10/22 04:18:17;;;;;;;2.15;2.03;;;;;;;;;;5053075;28;20049;-85
2022/10/22 04:20:45;;;;;;;3.75;3.55;;;;;;;;;;5053950;28;20496;-85
2022/10/22 04:23:12;;;;;;;3.05;2.85;;;;;;;;;;5053895;28;20114;-85
2022/10/22 04:25:38;;;;;;;2.95;2.75;;;;;;;;;;5053196;28;20041;-85
2022/10/22 04:28:06;;;;;;;1.83;1.73;;;;;;;;;;5053640;28;20056;-85
2022/10/22 04:30:32;;;;;;;2.15;2.05;;;;;;;;;;5053346;28;20404;-85
2022/10/22 04:32:59;;;;;;;2.42;2.25;;;;;;;;;;5057836;28;20102;-85
2022/10/22 04:35:25;;;;;;;1.50;1.38;;;;;;;;;;5061572;28;20480;-85
2022/10/22 04:37:54;;;;;;;2.08;1.95;;;;;;;;;;5062526;28;20048;-86
2022/10/22 04:40:20;;;;;;;2.15;2.05;;;;;;;;;;5062361;28;20040;-85
2022/10/22 04:42:47;;;;;;;3.17;2.90;;;;;;;;;;5062092;28;20061;-86
2022/10/22 04:45:14;;;;;;;2.25;2.15;;;;;;;;;;5066028;28;20465;-86
2022/10/22 04:47:41;;;;;;;3.00;1.95;;;;;;;;;;5061395;28;20049;-85
2022/10/22 04:50:08;;;;;;;2.92;2.22;;;;;;;;;;5062733;28;20044;-84
2022/10/22 04:52:34;;;;;;;1.77;1.67;;;;;;;;;;5061502;28;20475;-85
2022/10/22 04:55:02;;;;;;;2.90;2.70;;;;;;;;;;5063004;28;20102;-85
2022/10/22 04:57:29;;;;;;;4.93;3.15;;;;;;;;;;5061702;28;20099;-85
2022/10/22 04:59:55;;;;;;;4.40;2.33;;;;;;;;;;5063781;28;20454;-85
2022/10/22 05:02:22;;;;;;;2.70;2.50;;;;;;;;;;5063019;28;20053;-85
2022/10/22 05:04:49;;;;;;;3.00;2.80;;;;;;;;;;5062188;28;20549;-85
2022/10/22 05:07:15;;;;;;;1.17;1.08;;;;;;;;;;5062027;28;20103;-85
2022/10/22 05:09:42;;;;;;;2.90;2.70;;;;;;;;;;5062540;28;20099;-85
2022/10/22 05:12:09;;;;;;;3.63;3.35;;;;;;;;;;5052809;28;20691;-85
2022/10/22 05:14:36;;;;;;;2.33;1.95;;;;;;;;;;5068545;28;20049;-86
2022/10/22 05:17:02;;;;;;;2.58;2.35;;;;;;;;;;5072596;28;20614;-85
2022/10/22 05:19:30;;;;;;;3.42;3.17;;;;;;;;;;5064793;28;20064;-85
2022/10/22 05:21:57;;;;;;;2.00;1.83;;;;;;;;;;5072772;28;20045;-85
2022/10/22 05:24:24;;;;;;;4.85;4.00;;;;;;;;;;5071367;28;20052;-86
2022/10/22 05:26:50;;;;;;;3.30;3.08;;;;;;;;;;5072325;28;20051;-85
2022/10/22 05:29:19;;;;;;;4.72;4.38;;;;;;;;;;5072016;28;20169;-85
2022/10/22 05:31:45;;;;;;;2.22;1.83;;;;;;;;;;5072065;28;20480;-85
2022/10/22 05:34:12;;;;;;;4.07;2.97;;;;;;;;;;5071801;28;20107;-86
2022/10/22 05:36:38;;;;;;;4.93;4.22;;;;;;;;;;5071570;28;20052;-86
2022/10/22 05:39:05;;;;;;;2.05;1.80;;;;;;;;;;5067112;28;20045;-86
2022/10/22 05:41:32;;;;;;;2.40;1.92;;;;;;;;;;5056986;28;20107;-86
2022/10/22 05:43:59;;;;;;;2.42;2.33;;;;;;;;;;5061608;28;20110;-86
2022/10/22 05:46:28;;;;;;;3.83;3.63;;;;;;;;;;5072194;28;20683;-85
2022/10/22 05:48:55;;;;;;;3.85;2.45;;;;;;;;;;5071946;28;20056;-86
2022/10/22 05:51:23;;;;;;;3.10;1.80;;;;;;;;;;5072301;28;20048;-86
2022/10/22 05:53:51;;;;;;;3.42;2.85;;;;;;;;;;5071916;28;20052;-86
2022/10/22 05:56:18;;;;;;;2.72;2.53;;;;;;;;;;5071175;28;20049;-86
2022/10/22 05:58:45;;;;;;;4.07;3.78;;;;;;;;;;5071834;28;20052;-86
2022/10/22 06:01:12;;;;;;;6.35;5.90;;;;;;;;;;5071880;28;20056;-86
2022/10/22 06:03:40;;;;;;;6.30;5.80;;;;;;;;;;5072040;28;20056;-86
2022/10/22 06:06:12;;;;;;;4.57;4.20;;;;;;;;;;5071977;28;20049;-86
2022/10/22 06:08:38;;;;;;;5.43;4.95;;;;;;;;;;5071610;28;20114;-87
2022/10/22 06:11:05;;;;;;;4.10;3.85;;;;;;;;;;5071846;28;20094;-87
2022/10/22 06:13:32;;;;;;;1.90;1.65;;;;;;;;;;5062175;28;20045;-87
2022/10/22 06:15:59;;;;;;;4.45;4.05;;;;;;;;;;5060280;28;20037;-87
2022/10/22 06:18:25;;;;;;;3.42;3.13;;;;;;;;;;5060458;28;20389;-87
2022/10/22 06:20:53;;;;;;;4.18;3.78;;;;;;;;;;5052102;28;20052;-87
2022/10/22 06:23:19;;;;;;;4.53;3.63;;;;;;;;;;5059067;28;20114;-87
2022/10/22 06:25:55;;;;;;;2.05;1.88;;;;;;;;;;5070277;28;20053;-86
2022/10/22 06:28:22;;;;;;;4.57;4.15;;;;;;;;;;5071234;28;20385;-87
2022/10/22 06:30:48;;;;;;;3.85;3.63;;;;;;;;;;5070347;28;20446;-86
2022/10/22 06:33:15;;;;;;;2.67;2.47;;;;;;;;;;5071432;28;20056;-86
2022/10/22 06:35:41;;;;;;;3.28;3.08;;;;;;;;;;5071448;28;20424;-86
2022/10/22 06:38:09;;;;;;;4.78;4.35;;;;;;;;;;5071128;28;20049;-86
2022/10/22 06:40:36;;;;;;;2.92;2.63;;;;;;;;;;5071070;28;20053;-86
2022/10/22 06:43:02;;;;;;;2.22;1.85;;;;;;;;;;5071390;28;20459;-86
2022/10/22 06:45:29;;;;;;;4.13;3.45;;;;;;;;;;5070860;28;20474;-86
2022/10/22 06:47:55;;;;;;;7.15;4.18;;;;;;;;;;5071466;28;20045;-86
2022/10/22 06:50:22;;;;;;;4.78;4.38;;;;;;;;;;5071649;28;20040;-86
2022/10/22 06:52:48;;;;;;;5.25;4.75;;;;;;;;;;5074543;28;20049;-86
2022/10/22 06:55:16;;;;;;;5.40;4.97;;;;;;;;;;5058767;28;20061;-86
2022/10/22 06:57:42;;;;;;;10.45;5.03;;;;;;;;;;5062726;28;20048;-86
2022/10/22 07:00:09;;;;;;;3.70;3.38;;;;;;;;;;5075329;28;20709;-86
2022/10/22 07:02:36;;;;;;;4.28;3.85;;;;;;;;;;5074772;28;20053;-86
2022/10/22 07:05:02;;;;;;;2.63;2.42;;;;;;;;;;5079580;28;20045;-86
2022/10/22 07:07:29;;;;;;;4.18;3.78;;;;;;;;;;5073601;28;20614;-86
2022/10/22 07:09:55;;;;;;;6.20;2.63;;;;;;;;;;5066161;28;20048;-86
2022/10/22 07:12:23;;;;;;;2.35;1.95;;;;;;;;;;5074806;28;20201;-86
2022/10/22 07:14:50;;;;;;;6.25;5.10;;;;;;;;;;5073993;28;20048;-86
2022/10/22 07:17:16;;;;;;;4.20;3.90;;;;;;;;;;5074510;28;20060;-86
2022/10/22 07:19:43;;;;;;;6.03;5.53;;;;;;;;;;5066357;28;20051;-86
2022/10/22 07:22:09;;;;;;;3.67;3.45;;;;;;;;;;5084837;28;20466;-86
2022/10/22 07:24:36;;;;;;;5.00;4.55;;;;;;;;;;5073928;28;20107;-86
2022/10/22 07:27:02;;;;;;;3.30;3.10;;;;;;;;;;5073538;28;20055;-86
2022/10/22 07:29:30;;;;;;;10.73;3.92;;;;;;;;;;5074166;28;20102;-86
2022/10/22 07:31:57;;;;;;;4.15;3.83;;;;;;;;;;5074275;28;20048;-86
2022/10/22 07:34:23;;;;;;;6.18;5.68;;;;;;;;;;5068745;28;20451;-86
2022/10/22 07:36:50;;;;;;;4.20;3.90;;;;;;;;;;5054527;28;20057;-86
2022/10/22 07:39:16;;;;;;;5.88;5.00;;;;;;;;;;5073484;28;20044;-86
2022/10/22 07:41:43;;;;;;;4.00;3.72;;;;;;;;;;5074334;28;20076;-87
2022/10/22 07:44:09;;;;;;;9.30;6.25;;;;;;;;;;5074332;28;20045;-86
2022/10/22 07:46:37;;;;;;;4.85;4.45;;;;;;;;;;5071310;28;20431;-86
2022/10/22 07:49:03;;;;;;;3.95;3.50;;;;;;;;;;5071605;28;20090;-86
2022/10/22 07:51:30;;;;;;;5.75;5.25;;;;;;;;;;5070613;28;20044;-86
2022/10/22 07:53:56;;;;;;;6.78;5.05;;;;;;;;;;5069636;28;20052;-86
2022/10/22 07:56:23;;;;;;;3.13;2.83;;;;;;;;;;5074065;28;20052;-86
2022/10/22 07:58:49;;;;;;;2.85;2.65;;;;;;;;;;5073763;28;20397;-86
2022/10/22 08:01:16;;;;;;;5.13;4.03;;;;;;;;;;5073408;28;20177;-86
2022/10/22 08:03:44;;;;;;;4.32;3.97;;;;;;;;;;5073752;28;20041;-86
2022/10/22 08:06:12;;;;;;;4.43;3.78;;;;;;;;;;5073142;28;20044;-86
2022/10/22 08:08:39;;;;;;;6.07;4.85;;;;;;;;;;5067002;28;20830;-86
2022/10/22 08:11:05;;;;;;;4.10;3.20;;;;;;;;;;5053876;28;20049;-86
2022/10/22 08:13:32;;;;;;;3.22;3.03;;;;;;;;;;5053938;28;20115;-86
2022/10/22 08:15:59;;;;;;;3.88;3.47;;;;;;;;;;5053474;28;20057;-86
2022/10/22 08:18:26;;;;;;;4.40;4.10;;;;;;;;;;5053474;28;20060;-86
2022/10/22 08:20:54;;;;;;;6.40;5.82;;;;;;;;;;5053512;28;20110;-86
2022/10/22 08:23:20;;;;;;;5.88;4.70;;;;;;;;;;5053043;28;20057;-86
2022/10/22 08:25:47;;;;;;;6.00;5.60;;;;;;;;;;5056048;28;20048;-86
2022/10/22 08:28:13;;;;;;;4.97;4.65;;;;;;;;;;5073448;28;20094;-86
2022/10/22 08:30:41;;;;;;;3.72;3.53;;;;;;;;;;5072999;28;20529;-86
2022/10/22 08:33:08;;;;;;;4.43;4.03;;;;;;;;;;5073302;28;20051;-85
2022/10/22 08:35:34;;;;;;;4.82;4.32;;;;;;;;;;5072687;28;20048;-86
2022/10/22 08:38:02;;;;;;;6.93;6.40;;;;;;;;;;5073065;28;20098;-85
2022/10/22 08:40:30;;;;;;;5.95;5.45;;;;;;;;;;5072794;28;20044;-86
2022/10/22 08:43:06;;;;;;;3.40;3.15;;;;;;;;;;5073420;28;20048;-85
2022/10/22 08:45:35;;;;;;;5.93;5.35;;;;;;;;;;5071104;28;20094;-85
2022/10/22 08:48:10;;;;;;;7.05;6.45;;;;;;;;;;5073139;28;20110;-85
2022/10/22 08:50:38;;;;;;;5.90;5.32;;;;;;;;;;5072407;28;20083;-85
2022/10/22 08:53:08;;;;;;;4.95;4.55;;;;;;;;;;5072056;28;20558;-86
2022/10/22 08:55:35;;;;;;;3.25;3.05;;;;;;;;;;5072990;28;20080;-85
2022/10/22 08:58:05;;;;;;;6.30;5.80;;;;;;;;;;5073054;28;20048;-85
2022/10/22 09:00:35;;;;;;;2.78;2.58;;;;;;;;;;5071965;28;20048;-85
2022/10/22 09:03:11;;;;;;;4.32;3.80;;;;;;;;;;5072737;28;20489;-86
2022/10/22 09:05:38;;;;;;;;;;;;;;;;;;5073096;28;20474;-86
2022/10/22 09:08:05;;;;;;;4.47;4.18;;;;;;;;;;5072781;28;19932;-86
2022/10/22 09:10:35;;;;;;;4.70;4.30;;;;;;;;;;5071471;28;20094;-85
2022/10/22 09:13:02;;;;;;;7.43;6.75;;;;;;;;;;5071951;28;20049;-86
2022/10/22 09:15:30;;;;;;;6.25;5.72;;;;;;;;;;5072605;28;20044;-85
2022/10/22 09:18:11;;;;;;;9.52;6.18;;;;;;;;;;5071463;28;20052;-86
2022/10/22 09:20:41;;;;;;;6.45;5.97;;;;;;;;;;5070180;28;20106;-86
2022/10/22 09:23:17;;;;;;;7.13;6.32;;;;;;;;;;5072665;28;20052;-86
2022/10/22 09:25:45;;;;;;;3.97;3.67;;;;;;;;;;5072518;28;20106;-86
2022/10/22 09:28:12;;;;;;;5.72;5.28;;;;;;;;;;5072488;28;20059;-86
2022/10/22 09:30:39;;;;;;;6.35;5.85;;;;;;;;;;5071254;28;20056;-87
2022/10/22 09:33:10;;;;;;;5.13;4.63;;;;;;;;;;5071591;28;20564;-87
2022/10/22 09:35:44;;;;;;;5.35;4.93;;;;;;;;;;5071969;28;20512;-86
2022/10/22 09:38:13;;;;;;;6.35;5.90;;;;;;;;;;5071962;28;20099;-87
2022/10/22 09:40:43;;;;;;;6.72;6.18;;;;;;;;;;5061867;28;20053;-86
2022/10/22 09:43:09;;;;;;;;;;;;;;;;;;5052653;28;20052;-86
2022/10/22 09:45:37;;;;;;;3.90;3.55;;;;;;;;;;5052090;28;20323;-87
2022/10/22 09:48:10;;;;;;;8.13;4.78;;;;;;;;;;5052286;28;20562;-87
2022/10/22 09:50:40;;;;;;;4.85;4.45;;;;;;;;;;5060108;28;20045;-87
2022/10/22 09:53:12;;;;;;;6.97;5.72;;;;;;;;;;5072385;28;20049;-86
2022/10/22 09:55:39;;;;;;;8.25;5.70;;;;;;;;;;5071870;28;20105;-87
2022/10/22 09:58:05;;;;;;;6.25;5.32;;;;;;;;;;5071073;28;20105;-86
2022/10/22 10:00:32;;;;;;;8.35;7.55;;;;;;;;;;5063887;28;20122;-86
2022/10/22 10:03:00;;;;;;;5.65;5.18;;;;;;;;;;5052225;28;20056;-87
2022/10/22 10:05:28;;;;;;;7.15;6.55;;;;;;;;;;5051888;28;20110;-86
2022/10/22 10:07:54;;;;;;;6.38;5.30;;;;;;;;;;5055277;28;20082;-86
2022/10/22 10:10:29;;;;;;;5.68;5.13;;;;;;;;;;5072062;28;20056;-86
2022/10/22 10:13:00;;;;;;;5.88;5.43;;;;;;;;;;5071959;28;20045;-86
2022/10/22 10:15:28;;;;;;;4.40;4.00;;;;;;;;;;5071776;28;20106;-86
2022/10/22 10:18:00;;;;;;;5.78;5.20;;;;;;;;;;5071596;28;20060;-85
2022/10/22 10:20:34;;;;;;;5.30;4.90;;;;;;;;;;5071237;28;20401;-87
2022/10/22 10:23:03;;;;;;;4.25;3.90;;;;;;;;;;5071626;28;20097;-86
2022/10/22 10:25:45;;;;;;;6.78;6.10;;;;;;;;;;5070478;28;20053;-86
2022/10/22 10:28:20;;;;;;;5.15;4.18;;;;;;;;;;5071868;28;20508;-86
2022/10/22 10:30:51;;;;;;;5.57;5.13;;;;;;;;;;5071276;28;20056;-86
2022/10/22 10:33:23;;;;;;;5.47;4.97;;;;;;;;;;5072013;28;20044;-86
2022/10/22 10:35:55;;;;;;;5.97;5.50;;;;;;;;;;5068107;28;20493;-85
2022/10/22 10:38:31;;;;;;;7.53;6.93;;;;;;;;;;5070452;28;20057;-83
2022/10/22 10:41:02;;;;;;;5.50;5.10;;;;;;;;;;5071162;28;20492;-85
2022/10/22 10:43:32;;;;;;;7.15;6.63;;;;;;;;;;5070315;28;20048;-86
2022/10/22 10:46:06;;;;;;;5.18;4.70;;;;;;;;;;5071331;28;20109;-85
2022/10/22 10:48:36;;;;;;;5.90;5.40;;;;;;;;;;5071538;28;20106;-86
2022/10/22 10:51:03;;;;;;;;;;;;;;;;;;5071144;28;20056;-86
2022/10/22 10:53:37;;;;;;;5.18;4.90;;;;;;;;;;5070820;28;20346;-86
2022/10/22 10:56:07;;;;;;;6.88;6.20;;;;;;;;;;5070833;28;20052;-86
2022/10/22 10:58:39;;;;;;;6.18;5.68;;;;;;;;;;5070576;28;20052;-86
2022/10/22 11:01:12;;;;;;;6.70;6.25;;;;;;;;;;5070911;28;20052;-86
2022/10/22 11:03:47;;;;;;;5.50;5.15;;;;;;;;;;5071617;28;20052;-87
2022/10/22 11:06:16;;;;;;;5.53;5.22;;;;;;;;;;5070014;28;20098;-86
2022/10/22 11:08:48;;;;;;;4.50;4.15;;;;;;;;;;5071098;28;20140;-86
2022/10/22 11:11:17;;;;;;;5.50;4.93;;;;;;;;;;5062829;28;20578;-86
2022/10/22 11:13:48;;;;;;;5.03;4.63;;;;;;;;;;5051081;28;20119;-86
2022/10/22 11:16:18;;;;;;;5.82;5.40;;;;;;;;;;5059642;28;20107;-85
2022/10/22 11:18:47;;;;;;;4.78;4.38;;;;;;;;;;5070595;28;20056;-86
2022/10/22 11:21:17;;;;;;;5.38;4.07;;;;;;;;;;5060784;28;20122;-83
2022/10/22 11:23:48;;;;;;;4.18;3.88;;;;;;;;;;5050902;28;20053;-84
2022/10/22 11:26:19;;;;;;;6.28;5.78;;;;;;;;;;5051182;28;20661;-85
2022/10/22 11:28:47;;;;;;;6.95;6.35;;;;;;;;;;5050847;28;20550;-85
2022/10/22 11:31:15;;;;;;;6.18;5.68;;;;;;;;;;5050789;28;20045;-86
2022/10/22 11:33:45;;;;;;;5.85;5.45;;;;;;;;;;5059496;28;20381;-86
2022/10/22 11:36:12;;;;;;;;;;;;;;;;;;5073773;28;20052;-86
2022/10/22 11:38:38;;;;;;;7.93;7.50;;;;;;;;;;5074302;28;19974;-86
2022/10/22 11:41:09;;;;;;;6.45;6.00;;;;;;;;;;5074090;28;20462;-86
2022/10/22 11:43:51;;;;;;;8.50;7.63;;;;;;;;;;5074199;28;20462;-84
2022/10/22 11:46:38;;;;;;;5.63;5.22;;;;;;;;;;5070546;28;20052;-85
2022/10/22 11:49:15;;;;;;;6.47;6.05;;;;;;;;;;5073640;28;20048;-84
2022/10/22 11:51:42;;;;;;;5.18;4.80;;;;;;;;;;5073145;28;20048;-84
2022/10/22 11:54:23;;;;;;;5.28;4.97;;;;;;;;;;5074159;28;20098;-84
2022/10/22 11:56:57;;;;;;;7.63;6.97;;;;;;;;;;5073632;28;20048;-84
2022/10/22 11:59:34;;;;;;;5.30;4.93;;;;;;;;;;5074120;28;20661;-84
2022/10/22 12:02:00;;;;;;;;;;;;;;;;;;5074286;28;20450;-83
2022/10/22 12:04:40;;;;;;;4.15;3.58;;;;;;;;;;5073801;28;19920;-84
2022/10/22 12:07:28;;;;;;;5.32;4.82;;;;;;;;;;5072529;28;20068;-84
2022/10/22 12:09:55;;;;;;;10.75;6.15;;;;;;;;;;5074229;28;20052;-83
2022/10/22 12:12:23;;;;;;;4.80;4.40;;;;;;;;;;5073666;28;20049;-84
2022/10/22 12:14:54;;;;;;;5.05;4.65;;;;;;;;;;5073662;28;20052;-84
2022/10/22 12:17:21;;;;;;;8.30;4.45;;;;;;;;;;5073348;28;20052;-84
2022/10/22 12:19:49;;;;;;;4.70;4.30;;;;;;;;;;5061828;28;20130;-85
2022/10/22 12:22:18;;;;;;;5.50;5.10;;;;;;;;;;5067117;28;20051;-84
2022/10/22 12:24:45;;;;;;;6.03;5.43;;;;;;;;;;5073393;28;20052;-85
2022/10/22 12:27:17;;;;;;;4.25;3.78;;;;;;;;;;5073367;28;20044;-85
2022/10/22 12:29:44;;;;;;;5.63;5.22;;;;;;;;;;5073281;28;20044;-85
2022/10/22 12:32:13;;;;;;;6.07;5.57;;;;;;;;;;5072459;28;20477;-85
2022/10/22 12:34:45;;;;;;;5.22;4.90;;;;;;;;;;5072989;28;20102;-85
2022/10/22 12:37:12;;;;;;;5.65;5.20;;;;;;;;;;5072847;28;20048;-85
2022/10/22 12:39:39;;;;;;;5.93;5.43;;;;;;;;;;5072437;28;20048;-85
2022/10/22 12:42:06;;;;;;;5.18;4.78;;;;;;;;;;5072722;28;20493;-84
2022/10/22 12:44:32;;;;;;;6.07;5.63;;;;;;;;;;5072531;28;20060;-84
2022/10/22 12:47:00;;;;;;;5.03;4.72;;;;;;;;;;5062129;28;20098;-85
2022/10/22 12:49:33;;;;;;;5.70;5.25;;;;;;;;;;5053315;28;20049;-84
2022/10/22 12:52:01;;;;;;;7.00;4.57;;;;;;;;;;5053174;28;20114;-85
2022/10/22 12:54:29;;;;;;;3.67;3.42;;;;;;;;;;5052717;28;20114;-85
2022/10/22 12:56:57;;;;;;;5.97;5.57;;;;;;;;;;5071035;28;20048;-84
2022/10/22 12:59:24;;;;;;;5.10;4.70;;;;;;;;;;5072746;28;20062;-84
2022/10/22 13:01:51;;;;;;;6.30;5.85;;;;;;;;;;5072329;28;20102;-84
2022/10/22 13:04:31;;;;;;;6.97;6.38;;;;;;;;;;5072330;28;20052;-85
2022/10/22 13:07:05;;;;;;;5.40;4.93;;;;;;;;;;5072295;28;20496;-84
2022/10/22 13:09:38;;;;;;;4.18;3.83;;;;;;;;;;5067600;28;20044;-85
2022/10/22 13:12:05;;;;;;;6.13;5.68;;;;;;;;;;5061336;28;20078;-84
2022/10/22 13:14:33;;;;;;;5.97;5.47;;;;;;;;;;5072724;28;20101;-84
2022/10/22 13:17:03;;;;;;;8.70;8.02;;;;;;;;;;5071944;28;20613;-84
2022/10/22 13:19:38;;;;;;;6.35;5.80;;;;;;;;;;5071300;28;20049;-84
2022/10/22 13:22:04;;;;;;;4.82;4.43;;;;;;;;;;5059717;28;20061;-85
2022/10/22 13:24:31;;;;;;;7.55;7.05;;;;;;;;;;5052157;28;20094;-84
2022/10/22 13:26:57;;;;;;;5.50;4.82;;;;;;;;;;5052228;28;20075;-84
2022/10/22 13:29:24;;;;;;;5.93;5.43;;;;;;;;;;5051912;28;20118;-85
2022/10/22 13:31:52;;;;;;;6.70;6.20;;;;;;;;;;5052300;28;20057;-84
2022/10/22 13:34:19;;;;;;;5.53;5.07;;;;;;;;;;5051796;28;20103;-85
2022/10/22 13:36:47;;;;;;;5.78;5.25;;;;;;;;;;5060514;28;20049;-84
2022/10/22 13:39:16;;;;;;;7.28;6.85;;;;;;;;;;5068177;28;20052;-84
2022/10/22 13:41:43;;;;;;;5.47;5.07;;;;;;;;;;5066370;28;20049;-84
2022/10/22 13:44:09;;;;;;;5.53;5.05;;;;;;;;;;5052131;28;20054;-85
2022/10/22 13:46:41;;;;;;;7.95;5.22;;;;;;;;;;5063197;28;20102;-84
2022/10/22 13:49:12;;;;;;;5.45;5.05;;;;;;;;;;5071731;28;20098;-84
2022/10/22 13:51:39;;;;;;;7.80;7.22;;;;;;;;;;5071578;28;20474;-84
2022/10/22 13:54:10;;;;;;;5.88;5.38;;;;;;;;;;5072028;28;20052;-84
2022/10/22 13:56:37;;;;;;;3.97;3.67;;;;;;;;;;5071579;28;20045;-85
2022/10/22 13:59:03;;;;;;;4.65;4.22;;;;;;;;;;5070990;28;20056;-84
2022/10/22 14:01:30;;;;;;;6.38;5.78;;;;;;;;;;5067931;28;20394;-85
2022/10/22 14:03:58;;;;;;;5.38;4.93;;;;;;;;;;5051495;28;20091;-84
2022/10/22 14:06:27;;;;;;;4.68;4.32;;;;;;;;;;5059382;28;20056;-84
2022/10/22 14:08:55;;;;;;;4.65;4.35;;;;;;;;;;5051807;28;20128;-84
2022/10/22 14:11:22;;;;;;;6.03;4.50;;;;;;;;;;5051537;28;20049;-84
2022/10/22 14:13:49;;;;;;;7.60;7.10;;;;;;;;;;5051002;28;20052;-84
2022/10/22 14:16:18;;;;;;;7.97;5.32;;;;;;;;;;5051530;28;20103;-84
2022/10/22 14:18:45;;;;;;;6.97;5.03;;;;;;;;;;5061015;28;20057;-84
2022/10/22 14:21:13;;;;;;;5.30;4.90;;;;;;;;;;5071310;28;20106;-84
2022/10/22 14:23:40;;;;;;;6.00;4.90;;;;;;;;;;5071162;28;20056;-84
2022/10/22 14:26:07;;;;;;;6.32;5.45;;;;;;;;;;5071715;28;20048;-84
2022/10/22 14:28:35;;;;;;;6.55;6.05;;;;;;;;;;5071095;28;20050;-85
2022/10/22 14:31:02;;;;;;;6.15;5.65;;;;;;;;;;5071509;28;20114;-85
2022/10/22 14:33:29;;;;;;;5.82;5.38;;;;;;;;;;5070577;28;20056;-84
2022/10/22 14:35:56;;;;;;;6.35;4.90;;;;;;;;;;5060006;28;20106;-84
2022/10/22 14:38:22;;;;;;;6.30;5.80;;;;;;;;;;5060141;28;20103;-85
2022/10/22 14:40:49;;;;;;;7.93;7.43;;;;;;;;;;5059617;28;20458;-85
2022/10/22 14:43:20;;;;;;;6.72;6.32;;;;;;;;;;5062138;28;20491;-84
2022/10/22 14:45:46;;;;;;;;;;;;;;;;;;5071723;28;20185;-84
2022/10/22 14:48:14;;;;;;;4.78;4.47;;;;;;;;;;5057009;28;19971;-84
2022/10/22 14:50:41;;;;;;;5.07;4.60;;;;;;;;;;5057163;28;20102;-83
2022/10/22 14:53:08;;;;;;;4.43;4.03;;;;;;;;;;5071228;28;20045;-83